sensor_id;sensor_type;location;lat;lon;timestamp;temperature;humidity
52127;DHT22;38120;53.176;6.614;2022-10-19T00:02:06;10.90;99.90
52127;DHT22;38120;53.176;6.614;2022-10-19T00:04:32;10.90;99.90
52127;DHT22;38120;53.176;6.614;2022-10-19T00:06:58;11.00;99.90
52127;DHT22;38120;53.176;6.614;2022-10-19T00:09:23;11.00;99.90
52127;DHT22;38120;53.176;6.614;2022-10-19T00:11:50;11.00;99.90
52127;DHT22;38120;53.176;6.614;2022-10-19T00:14:21;11.00;99.90
52127;DHT22;38120;53.176;6.614;2022-10-19T00:16:49;11.10;99.90
52127;DHT22;38120;53.176;6.614;2022-10-19T00:19:21;11.10;99.90
52127;DHT22;38120;53.176;6.614;2022-10-19T00:21:47;11.00;99.90
52127;DHT22;38120;53.176;6.614;2022-10-19T00:24:13;11.00;99.90
52127;DHT22;38120;53.176;6.614;2022-10-19T00:26:39;11.00;99.90
52127;DHT22;38120;53.176;6.614;2022-10-19T00:29:05;11.10;99.90
52127;DHT22;38120;53.176;6.614;2022-10-19T00:31:31;11.20;99.90
52127;DHT22;38120;53.176;6.614;2022-10-19T00:33:57;11.20;99.90
52127;DHT22;38120;53.176;6.614;2022-10-19T00:36:31;11.10;99.90
52127;DHT22;38120;53.176;6.614;2022-10-19T00:38:59;11.30;99.90
52127;DHT22;38120;53.176;6.614;2022-10-19T00:41:28;11.10;99.90
52127;DHT22;38120;53.176;6.614;2022-10-19T00:44:05;11.20;99.90
52127;DHT22;38120;53.176;6.614;2022-10-19T00:46:34;11.10;99.90
52127;DHT22;38120;53.176;6.614;2022-10-19T00:49:16;11.10;99.90
52127;DHT22;38120;53.176;6.614;2022-10-19T00:51:47;11.10;99.90
52127;DHT22;38120;53.176;6.614;2022-10-19T00:54:14;11.10;99.90
52127;DHT22;38120;53.176;6.614;2022-10-19T00:56:42;11.00;99.90
52127;DHT22;38120;53.176;6.614;2022-10-19T00:59:09;11.10;99.90
52127;DHT22;38120;53.176;6.614;2022-10-19T01:01:36;11.10;99.90
52127;DHT22;38120;53.176;6.614;2022-10-19T01:04:02;11.20;99.90
52127;DHT22;38120;53.176;6.614;2022-10-19T01:06:29;11.20;99.90
52127;DHT22;38120;53.176;6.614;2022-10-19T01:08:55;11.20;99.90
52127;DHT22;38120;53.176;6.614;2022-10-19T01:16:54;11.30;99.90
52127;DHT22;38120;53.176;6.614;2022-10-19T01:22:40;11.20;99.90
52127;DHT22;38120;53.176;6.614;2022-10-19T01:25:22;11.20;99.90
52127;DHT22;38120;53.176;6.614;2022-10-19T01:27:56;11.20;99.90
52127;DHT22;38120;53.176;6.614;2022-10-19T01:35:49;11.20;99.90
52127;DHT22;38120;53.176;6.614;2022-10-19T01:38:40;11.20;99.90
52127;DHT22;38120;53.176;6.614;2022-10-19T01:41:20;11.20;99.90
52127;DHT22;38120;53.176;6.614;2022-10-19T01:43:58;11.30;99.90
52127;DHT22;38120;53.176;6.614;2022-10-19T01:48:59;11.20;99.90
52127;DHT22;38120;53.176;6.614;2022-10-19T01:51:33;11.20;99.90
52127;DHT22;38120;53.176;6.614;2022-10-19T01:54:03;11.20;99.90
52127;DHT22;38120;53.176;6.614;2022-10-19T01:56:31;11.30;99.90
52127;DHT22;38120;53.176;6.614;2022-10-19T01:59:01;11.20;99.90
52127;DHT22;38120;53.176;6.614;2022-10-19T02:01:30;11.30;99.90
52127;DHT22;38120;53.176;6.614;2022-10-19T02:03:59;11.30;99.90
52127;DHT22;38120;53.176;6.614;2022-10-19T02:06:25;11.10;99.90
52127;DHT22;38120;53.176;6.614;2022-10-19T02:08:52;11.20;99.90
52127;DHT22;38120;53.176;6.614;2022-10-19T02:11:18;11.20;99.90
52127;DHT22;38120;53.176;6.614;2022-10-19T02:13:48;11.30;99.90
52127;DHT22;38120;53.176;6.614;2022-10-19T02:16:21;11.30;99.90
52127;DHT22;38120;53.176;6.614;2022-10-19T02:18:50;11.40;99.90
52127;DHT22;38120;53.176;6.614;2022-10-19T02:21:18;11.30;99.90
52127;DHT22;38120;53.176;6.614;2022-10-19T02:23:44;11.30;99.90
52127;DHT22;38120;53.176;6.614;2022-10-19T02:26:10;11.30;99.90
52127;DHT22;38120;53.176;6.614;2022-10-19T02:28:36;11.20;99.90
52127;DHT22;38120;53.176;6.614;2022-10-19T02:31:03;11.20;99.90
52127;DHT22;38120;53.176;6.614;2022-10-19T02:33:29;11.20;99.90
52127;DHT22;38120;53.176;6.614;2022-10-19T02:35:55;11.10;99.90
52127;DHT22;38120;53.176;6.614;2022-10-19T02:38:22;11.10;99.90
52127;DHT22;38120;53.176;6.614;2022-10-19T02:43:49;11.00;99.90
52127;DHT22;38120;53.176;6.614;2022-10-19T02:46:23;11.10;99.90
52127;DHT22;38120;53.176;6.614;2022-10-19T02:48:50;11.00;99.90
52127;DHT22;38120;53.176;6.614;2022-10-19T02:51:30;11.00;99.90
52127;DHT22;38120;53.176;6.614;2022-10-19T02:53:56;11.00;99.90
52127;DHT22;38120;53.176;6.614;2022-10-19T02:56:22;10.90;99.90
52127;DHT22;38120;53.176;6.614;2022-10-19T02:58:48;10.80;99.90
52127;DHT22;38120;53.176;6.614;2022-10-19T03:01:13;10.80;99.90
52127;DHT22;38120;53.176;6.614;2022-10-19T03:03:39;10.70;99.90
52127;DHT22;38120;53.176;6.614;2022-10-19T03:06:05;10.70;99.90
52127;DHT22;38120;53.176;6.614;2022-10-19T03:08:30;10.60;99.90
52127;DHT22;38120;53.176;6.614;2022-10-19T03:10:59;10.40;99.90
52127;DHT22;38120;53.176;6.614;2022-10-19T03:13:25;10.40;99.90
52127;DHT22;38120;53.176;6.614;2022-10-19T03:15:52;10.30;99.90
52127;DHT22;38120;53.176;6.614;2022-10-19T03:18:18;10.20;99.90
52127;DHT22;38120;53.176;6.614;2022-10-19T03:20:43;10.30;99.90
52127;DHT22;38120;53.176;6.614;2022-10-19T03:23:09;10.20;99.90
52127;DHT22;38120;53.176;6.614;2022-10-19T03:25:35;10.00;99.90
52127;DHT22;38120;53.176;6.614;2022-10-19T03:28:00;10.10;99.90
52127;DHT22;38120;53.176;6.614;2022-10-19T03:30:26;10.10;99.90
52127;DHT22;38120;53.176;6.614;2022-10-19T03:32:52;10.10;99.90
52127;DHT22;38120;53.176;6.614;2022-10-19T03:35:17;10.10;99.90
52127;DHT22;38120;53.176;6.614;2022-10-19T03:37:43;10.10;99.90
52127;DHT22;38120;53.176;6.614;2022-10-19T03:40:09;10.00;99.90
52127;DHT22;38120;53.176;6.614;2022-10-19T03:42:35;10.00;99.90
52127;DHT22;38120;53.176;6.614;2022-10-19T03:45:01;10.10;99.90
52127;DHT22;38120;53.176;6.614;2022-10-19T03:47:26;10.20;99.90
52127;DHT22;38120;53.176;6.614;2022-10-19T03:49:52;10.00;99.90
52127;DHT22;38120;53.176;6.614;2022-10-19T03:52:18;10.10;99.90
52127;DHT22;38120;53.176;6.614;2022-10-19T03:54:45;10.10;99.90
52127;DHT22;38120;53.176;6.614;2022-10-19T03:57:11;10.20;99.90
52127;DHT22;38120;53.176;6.614;2022-10-19T03:59:37;10.10;99.90
52127;DHT22;38120;53.176;6.614;2022-10-19T04:02:03;10.00;99.90
52127;DHT22;38120;53.176;6.614;2022-10-19T04:04:28;10.10;99.90
52127;DHT22;38120;53.176;6.614;2022-10-19T04:06:54;10.10;99.90
52127;DHT22;38120;53.176;6.614;2022-10-19T04:09:21;10.20;99.90
52127;DHT22;38120;53.176;6.614;2022-10-19T04:11:47;10.20;99.90
52127;DHT22;38120;53.176;6.614;2022-10-19T04:14:15;10.20;99.90
52127;DHT22;38120;53.176;6.614;2022-10-19T04:16:41;10.20;99.90
52127;DHT22;38120;53.176;6.614;2022-10-19T04:19:07;10.30;99.90
52127;DHT22;38120;53.176;6.614;2022-10-19T04:21:36;10.20;99.90
52127;DHT22;38120;53.176;6.614;2022-10-19T04:24:13;10.30;99.90
52127;DHT22;38120;53.176;6.614;2022-10-19T04:26:42;10.30;99.90
52127;DHT22;38120;53.176;6.614;2022-10-19T04:29:08;10.30;99.90
52127;DHT22;38120;53.176;6.614;2022-10-19T04:31:34;10.30;99.90
52127;DHT22;38120;53.176;6.614;2022-10-19T04:34:00;10.30;99.90
52127;DHT22;38120;53.176;6.614;2022-10-19T04:36:26;10.30;99.90
52127;DHT22;38120;53.176;6.614;2022-10-19T04:38:51;10.30;99.90
52127;DHT22;38120;53.176;6.614;2022-10-19T04:41:19;10.30;99.90
52127;DHT22;38120;53.176;6.614;2022-10-19T04:43:46;10.30;99.90
52127;DHT22;38120;53.176;6.614;2022-10-19T04:46:15;10.30;99.90
52127;DHT22;38120;53.176;6.614;2022-10-19T04:48:41;10.20;99.90
52127;DHT22;38120;53.176;6.614;2022-10-19T04:51:07;10.30;99.90
52127;DHT22;38120;53.176;6.614;2022-10-19T04:53:34;10.30;99.90
52127;DHT22;38120;53.176;6.614;2022-10-19T04:56:05;10.30;99.90
52127;DHT22;38120;53.176;6.614;2022-10-19T04:58:31;10.20;99.90
52127;DHT22;38120;53.176;6.614;2022-10-19T05:00:57;10.30;99.90
52127;DHT22;38120;53.176;6.614;2022-10-19T05:03:22;10.20;99.90
52127;DHT22;38120;53.176;6.614;2022-10-19T05:05:48;10.60;99.90
52127;DHT22;38120;53.176;6.614;2022-10-19T05:08:14;10.20;99.90
52127;DHT22;38120;53.176;6.614;2022-10-19T05:10:40;10.20;99.90
52127;DHT22;38120;53.176;6.614;2022-10-19T05:13:06;10.20;99.90
52127;DHT22;38120;53.176;6.614;2022-10-19T05:15:32;10.10;99.90
52127;DHT22;38120;53.176;6.614;2022-10-19T05:17:57;10.20;99.90
52127;DHT22;38120;53.176;6.614;2022-10-19T05:20:24;10.30;99.90
52127;DHT22;38120;53.176;6.614;2022-10-19T05:22:50;10.30;99.90
52127;DHT22;38120;53.176;6.614;2022-10-19T05:25:16;10.20;99.90
52127;DHT22;38120;53.176;6.614;2022-10-19T05:27:42;10.20;99.90
52127;DHT22;38120;53.176;6.614;2022-10-19T05:30:08;10.30;99.90
52127;DHT22;38120;53.176;6.614;2022-10-19T05:32:34;10.20;99.90
52127;DHT22;38120;53.176;6.614;2022-10-19T05:35:00;10.30;99.90
52127;DHT22;38120;53.176;6.614;2022-10-19T05:37:26;10.30;99.90
52127;DHT22;38120;53.176;6.614;2022-10-19T05:39:53;10.20;99.90
52127;DHT22;38120;53.176;6.614;2022-10-19T05:42:19;10.20;99.90
52127;DHT22;38120;53.176;6.614;2022-10-19T05:44:44;10.20;99.90
52127;DHT22;38120;53.176;6.614;2022-10-19T05:47:10;10.20;99.90
52127;DHT22;38120;53.176;6.614;2022-10-19T05:49:36;10.30;99.90
52127;DHT22;38120;53.176;6.614;2022-10-19T05:52:02;10.30;99.90
52127;DHT22;38120;53.176;6.614;2022-10-19T05:54:27;10.30;99.90
52127;DHT22;38120;53.176;6.614;2022-10-19T05:56:53;10.20;99.90
52127;DHT22;38120;53.176;6.614;2022-10-19T05:59:20;10.30;99.90
52127;DHT22;38120;53.176;6.614;2022-10-19T06:01:46;10.20;99.90
52127;DHT22;38120;53.176;6.614;2022-10-19T06:04:12;10.30;99.90
52127;DHT22;38120;53.176;6.614;2022-10-19T06:06:40;10.20;99.90
52127;DHT22;38120;53.176;6.614;2022-10-19T06:09:07;10.20;99.90
52127;DHT22;38120;53.176;6.614;2022-10-19T06:11:36;10.90;99.90
52127;DHT22;38120;53.176;6.614;2022-10-19T06:14:06;10.30;99.90
52127;DHT22;38120;53.176;6.614;2022-10-19T06:16:32;10.40;99.90
52127;DHT22;38120;53.176;6.614;2022-10-19T06:18:58;10.40;99.90
52127;DHT22;38120;53.176;6.614;2022-10-19T06:21:27;10.70;99.90
52127;DHT22;38120;53.176;6.614;2022-10-19T06:23:59;10.50;99.90
52127;DHT22;38120;53.176;6.614;2022-10-19T06:26:26;10.50;99.90
52127;DHT22;38120;53.176;6.614;2022-10-19T06:28:56;10.50;99.90
52127;DHT22;38120;53.176;6.614;2022-10-19T06:31:25;10.60;99.90
52127;DHT22;38120;53.176;6.614;2022-10-19T06:33:51;10.60;99.90
52127;DHT22;38120;53.176;6.614;2022-10-19T06:36:19;10.60;99.90
52127;DHT22;38120;53.176;6.614;2022-10-19T06:38:46;10.60;99.90
52127;DHT22;38120;53.176;6.614;2022-10-19T06:41:12;10.60;99.90
52127;DHT22;38120;53.176;6.614;2022-10-19T06:43:38;10.70;99.90
52127;DHT22;38120;53.176;6.614;2022-10-19T06:46:05;10.70;99.90
52127;DHT22;38120;53.176;6.614;2022-10-19T06:48:31;10.70;99.90
52127;DHT22;38120;53.176;6.614;2022-10-19T06:50:59;10.70;99.90
52127;DHT22;38120;53.176;6.614;2022-10-19T06:53:25;10.80;99.90
52127;DHT22;38120;53.176;6.614;2022-10-19T06:55:51;10.70;99.90
52127;DHT22;38120;53.176;6.614;2022-10-19T06:58:17;10.80;99.90
52127;DHT22;38120;53.176;6.614;2022-10-19T07:00:43;10.80;99.90
52127;DHT22;38120;53.176;6.614;2022-10-19T07:03:09;10.80;99.90
52127;DHT22;38120;53.176;6.614;2022-10-19T07:05:34;10.90;99.90
52127;DHT22;38120;53.176;6.614;2022-10-19T07:08:00;10.90;99.90
52127;DHT22;38120;53.176;6.614;2022-10-19T07:10:25;11.00;99.90
52127;DHT22;38120;53.176;6.614;2022-10-19T07:12:51;11.00;99.90
52127;DHT22;38120;53.176;6.614;2022-10-19T07:15:17;11.20;99.90
52127;DHT22;38120;53.176;6.614;2022-10-19T07:17:42;11.10;99.90
52127;DHT22;38120;53.176;6.614;2022-10-19T07:20:08;11.10;99.90
52127;DHT22;38120;53.176;6.614;2022-10-19T07:22:35;11.10;99.90
52127;DHT22;38120;53.176;6.614;2022-10-19T07:25:00;11.20;99.90
52127;DHT22;38120;53.176;6.614;2022-10-19T07:27:26;11.20;99.90
52127;DHT22;38120;53.176;6.614;2022-10-19T07:29:52;11.30;99.90
52127;DHT22;38120;53.176;6.614;2022-10-19T07:32:17;11.30;99.90
52127;DHT22;38120;53.176;6.614;2022-10-19T07:34:43;11.30;99.90
52127;DHT22;38120;53.176;6.614;2022-10-19T07:37:09;11.40;99.90
52127;DHT22;38120;53.176;6.614;2022-10-19T07:39:35;11.40;99.90
52127;DHT22;38120;53.176;6.614;2022-10-19T07:42:01;11.50;99.90
52127;DHT22;38120;53.176;6.614;2022-10-19T07:44:27;11.40;99.90
52127;DHT22;38120;53.176;6.614;2022-10-19T07:46:52;11.50;99.90
52127;DHT22;38120;53.176;6.614;2022-10-19T07:49:18;11.60;99.90
52127;DHT22;38120;53.176;6.614;2022-10-19T07:51:45;11.50;99.90
52127;DHT22;38120;53.176;6.614;2022-10-19T07:54:11;11.60;99.90
52127;DHT22;38120;53.176;6.614;2022-10-19T07:56:37;11.60;99.90
52127;DHT22;38120;53.176;6.614;2022-10-19T07:59:03;11.70;99.90
52127;DHT22;38120;53.176;6.614;2022-10-19T08:01:32;11.80;99.90
52127;DHT22;38120;53.176;6.614;2022-10-19T08:03:59;11.80;99.90
52127;DHT22;38120;53.176;6.614;2022-10-19T08:06:25;11.90;99.90
52127;DHT22;38120;53.176;6.614;2022-10-19T08:08:52;11.90;99.90
52127;DHT22;38120;53.176;6.614;2022-10-19T08:11:24;11.90;99.90
52127;DHT22;38120;53.176;6.614;2022-10-19T08:13:51;11.90;99.90
52127;DHT22;38120;53.176;6.614;2022-10-19T08:16:36;12.00;99.90
52127;DHT22;38120;53.176;6.614;2022-10-19T08:19:08;12.00;99.90
52127;DHT22;38120;53.176;6.614;2022-10-19T08:21:35;12.00;99.90
52127;DHT22;38120;53.176;6.614;2022-10-19T08:24:02;12.10;99.90
52127;DHT22;38120;53.176;6.614;2022-10-19T08:26:29;12.10;99.90
52127;DHT22;38120;53.176;6.614;2022-10-19T08:29:03;12.30;99.90
52127;DHT22;38120;53.176;6.614;2022-10-19T08:31:29;12.20;99.90
52127;DHT22;38120;53.176;6.614;2022-10-19T08:33:55;12.30;99.90
52127;DHT22;38120;53.176;6.614;2022-10-19T08:36:21;12.20;99.90
52127;DHT22;38120;53.176;6.614;2022-10-19T08:38:48;12.30;99.90
52127;DHT22;38120;53.176;6.614;2022-10-19T08:49:48;12.50;99.90
52127;DHT22;38120;53.176;6.614;2022-10-19T08:52:20;12.60;99.90
52127;DHT22;38120;53.176;6.614;2022-10-19T08:54:55;12.60;99.90
52127;DHT22;38120;53.176;6.614;2022-10-19T08:57:52;12.60;99.90
52127;DHT22;38120;53.176;6.614;2022-10-19T09:02:56;12.60;99.90
52127;DHT22;38120;53.176;6.614;2022-10-19T09:05:45;12.70;99.90
52127;DHT22;38120;53.176;6.614;2022-10-19T09:08:11;12.70;99.90
52127;DHT22;38120;53.176;6.614;2022-10-19T09:10:42;12.70;99.90
52127;DHT22;38120;53.176;6.614;2022-10-19T09:15:57;12.70;99.90
52127;DHT22;38120;53.176;6.614;2022-10-19T09:18:29;12.70;99.90
52127;DHT22;38120;53.176;6.614;2022-10-19T09:21:08;12.70;99.90
52127;DHT22;38120;53.176;6.614;2022-10-19T09:26:21;12.70;99.90
52127;DHT22;38120;53.176;6.614;2022-10-19T09:28:54;12.80;99.90
52127;DHT22;38120;53.176;6.614;2022-10-19T09:31:32;12.70;99.90
52127;DHT22;38120;53.176;6.614;2022-10-19T09:34:05;12.80;99.90
52127;DHT22;38120;53.176;6.614;2022-10-19T09:36:41;12.80;99.90
52127;DHT22;38120;53.176;6.614;2022-10-19T09:39:10;12.90;99.90
52127;DHT22;38120;53.176;6.614;2022-10-19T09:41:46;12.80;99.90
52127;DHT22;38120;53.176;6.614;2022-10-19T09:44:14;12.90;99.90
52127;DHT22;38120;53.176;6.614;2022-10-19T09:46:47;12.90;99.90
52127;DHT22;38120;53.176;6.614;2022-10-19T09:49:37;12.90;99.90
52127;DHT22;38120;53.176;6.614;2022-10-19T09:52:02;12.80;99.90
52127;DHT22;38120;53.176;6.614;2022-10-19T09:54:34;12.90;99.90
52127;DHT22;38120;53.176;6.614;2022-10-19T09:57:01;12.90;99.90
52127;DHT22;38120;53.176;6.614;2022-10-19T09:59:33;13.00;99.90
52127;DHT22;38120;53.176;6.614;2022-10-19T10:02:17;13.00;99.90
52127;DHT22;38120;53.176;6.614;2022-10-19T10:05:04;13.00;99.90
52127;DHT22;38120;53.176;6.614;2022-10-19T10:07:37;13.00;99.90
52127;DHT22;38120;53.176;6.614;2022-10-19T10:10:22;13.00;99.90
52127;DHT22;38120;53.176;6.614;2022-10-19T10:12:48;13.10;99.90
52127;DHT22;38120;53.176;6.614;2022-10-19T10:15:20;13.10;99.90
52127;DHT22;38120;53.176;6.614;2022-10-19T10:17:49;13.10;99.90
52127;DHT22;38120;53.176;6.614;2022-10-19T10:20:23;13.10;99.90
52127;DHT22;38120;53.176;6.614;2022-10-19T10:23:03;13.20;99.90
52127;DHT22;38120;53.176;6.614;2022-10-19T10:25:31;13.20;99.90
52127;DHT22;38120;53.176;6.614;2022-10-19T10:28:19;13.30;99.90
52127;DHT22;38120;53.176;6.614;2022-10-19T10:30:47;13.40;99.90
52127;DHT22;38120;53.176;6.614;2022-10-19T10:33:22;13.40;99.90
52127;DHT22;38120;53.176;6.614;2022-10-19T10:35:53;13.50;99.90
52127;DHT22;38120;53.176;6.614;2022-10-19T10:38:25;13.50;99.90
52127;DHT22;38120;53.176;6.614;2022-10-19T10:40:55;13.60;99.90
52127;DHT22;38120;53.176;6.614;2022-10-19T10:43:31;13.60;99.90
52127;DHT22;38120;53.176;6.614;2022-10-19T10:46:13;13.60;99.90
52127;DHT22;38120;53.176;6.614;2022-10-19T10:48:43;13.70;99.90
52127;DHT22;38120;53.176;6.614;2022-10-19T10:51:19;13.70;99.90
52127;DHT22;38120;53.176;6.614;2022-10-19T10:53:46;13.70;99.90
52127;DHT22;38120;53.176;6.614;2022-10-19T10:56:24;13.70;99.90
52127;DHT22;38120;53.176;6.614;2022-10-19T10:59:20;13.60;99.90
52127;DHT22;38120;53.176;6.614;2022-10-19T11:02:00;13.60;99.90
52127;DHT22;38120;53.176;6.614;2022-10-19T11:04:31;13.70;99.90
52127;DHT22;38120;53.176;6.614;2022-10-19T11:07:04;13.60;99.90
52127;DHT22;38120;53.176;6.614;2022-10-19T11:09:39;13.80;99.90
52127;DHT22;38120;53.176;6.614;2022-10-19T11:12:10;13.70;99.90
52127;DHT22;38120;53.176;6.614;2022-10-19T11:15:19;13.80;99.90
52127;DHT22;38120;53.176;6.614;2022-10-19T11:20:35;13.70;99.90
52127;DHT22;38120;53.176;6.614;2022-10-19T11:31:51;13.70;99.90
52127;DHT22;38120;53.176;6.614;2022-10-19T11:34:53;13.80;99.90
52127;DHT22;38120;53.176;6.614;2022-10-19T11:40:45;13.60;99.90
52127;DHT22;38120;53.176;6.614;2022-10-19T11:51:44;13.80;99.90
52127;DHT22;38120;53.176;6.614;2022-10-19T11:56:51;13.80;99.90
52127;DHT22;38120;53.176;6.614;2022-10-19T12:10:47;13.40;99.90
52127;DHT22;38120;53.176;6.614;2022-10-19T12:13:36;13.50;99.90
52127;DHT22;38120;53.176;6.614;2022-10-19T12:16:05;13.80;99.90
52127;DHT22;38120;53.176;6.614;2022-10-19T12:18:42;13.90;99.90
52127;DHT22;38120;53.176;6.614;2022-10-19T12:21:32;13.90;99.90
52127;DHT22;38120;53.176;6.614;2022-10-19T12:24:01;13.80;99.90
52127;DHT22;38120;53.176;6.614;2022-10-19T12:26:34;13.80;99.90
52127;DHT22;38120;53.176;6.614;2022-10-19T12:29:05;13.70;99.90
52127;DHT22;38120;53.176;6.614;2022-10-19T12:31:31;13.60;99.90
52127;DHT22;38120;53.176;6.614;2022-10-19T12:39:34;13.40;99.90
52127;DHT22;38120;53.176;6.614;2022-10-19T12:42:20;13.30;99.90
52127;DHT22;38120;53.176;6.614;2022-10-19T12:45:23;13.30;99.90
52127;DHT22;38120;53.176;6.614;2022-10-19T12:56:11;13.20;99.90
52127;DHT22;38120;53.176;6.614;2022-10-19T13:01:13;13.20;99.90
52127;DHT22;38120;53.176;6.614;2022-10-19T13:03:41;13.20;99.90
52127;DHT22;38120;53.176;6.614;2022-10-19T13:08:54;13.70;99.90
52127;DHT22;38120;53.176;6.614;2022-10-19T13:11:21;13.70;99.90
52127;DHT22;38120;53.176;6.614;2022-10-19T13:13:58;13.60;99.90
52127;DHT22;38120;53.176;6.614;2022-10-19T13:19:18;13.30;99.90
52127;DHT22;38120;53.176;6.614;2022-10-19T13:29:38;13.50;99.90
52127;DHT22;38120;53.176;6.614;2022-10-19T13:34:55;13.80;99.90
52127;DHT22;38120;53.176;6.614;2022-10-19T13:37:37;13.90;99.90
52127;DHT22;38120;53.176;6.614;2022-10-19T13:40:17;13.80;99.90
52127;DHT22;38120;53.176;6.614;2022-10-19T13:42:44;13.90;99.90
52127;DHT22;38120;53.176;6.614;2022-10-19T13:45:21;13.70;99.90
52127;DHT22;38120;53.176;6.614;2022-10-19T13:47:51;13.80;99.90
52127;DHT22;38120;53.176;6.614;2022-10-19T13:50:34;13.70;99.90
52127;DHT22;38120;53.176;6.614;2022-10-19T13:53:10;13.60;99.90
52127;DHT22;38120;53.176;6.614;2022-10-19T13:56:13;13.70;99.90
52127;DHT22;38120;53.176;6.614;2022-10-19T14:04:24;13.50;99.90
52127;DHT22;38120;53.176;6.614;2022-10-19T14:06:56;13.50;99.90
52127;DHT22;38120;53.176;6.614;2022-10-19T14:12:06;13.40;99.90
52127;DHT22;38120;53.176;6.614;2022-10-19T14:14:40;13.40;99.90
52127;DHT22;38120;53.176;6.614;2022-10-19T14:17:14;13.40;99.90
52127;DHT22;38120;53.176;6.614;2022-10-19T14:20:23;13.40;99.90
52127;DHT22;38120;53.176;6.614;2022-10-19T14:22:30;13.30;99.90
52127;DHT22;38120;53.176;6.614;2022-10-19T14:25:17;13.40;99.90
52127;DHT22;38120;53.176;6.614;2022-10-19T14:27:45;13.30;99.90
52127;DHT22;38120;53.176;6.614;2022-10-19T14:30:22;13.30;99.90
52127;DHT22;38120;53.176;6.614;2022-10-19T14:32:47;13.30;99.90
52127;DHT22;38120;53.176;6.614;2022-10-19T14:35:29;13.30;99.90
52127;DHT22;38120;53.176;6.614;2022-10-19T14:37:56;13.20;99.90
52127;DHT22;38120;53.176;6.614;2022-10-19T14:40:30;13.20;99.90
52127;DHT22;38120;53.176;6.614;2022-10-19T14:42:58;13.20;99.90
52127;DHT22;38120;53.176;6.614;2022-10-19T14:45:29;13.20;99.90
52127;DHT22;38120;53.176;6.614;2022-10-19T14:53:06;13.10;99.90
52127;DHT22;38120;53.176;6.614;2022-10-19T14:55:37;13.10;99.90
52127;DHT22;38120;53.176;6.614;2022-10-19T14:58:09;13.00;99.90
52127;DHT22;38120;53.176;6.614;2022-10-19T15:00:36;13.00;99.90
52127;DHT22;38120;53.176;6.614;2022-10-19T15:03:04;12.90;99.90
52127;DHT22;38120;53.176;6.614;2022-10-19T15:05:34;12.90;99.90
52127;DHT22;38120;53.176;6.614;2022-10-19T15:08:22;12.90;99.90
52127;DHT22;38120;53.176;6.614;2022-10-19T15:10:49;12.80;99.90
52127;DHT22;38120;53.176;6.614;2022-10-19T15:13:24;12.80;99.90
52127;DHT22;38120;53.176;6.614;2022-10-19T15:15:51;12.80;99.90
52127;DHT22;38120;53.176;6.614;2022-10-19T15:18:20;12.70;99.90
52127;DHT22;38120;53.176;6.614;2022-10-19T15:21:00;12.70;99.90
52127;DHT22;38120;53.176;6.614;2022-10-19T15:23:45;12.70;99.90
52127;DHT22;38120;53.176;6.614;2022-10-19T15:26:31;12.70;99.90
52127;DHT22;38120;53.176;6.614;2022-10-19T15:29:08;12.60;99.90
52127;DHT22;38120;53.176;6.614;2022-10-19T15:31:34;12.60;99.90
52127;DHT22;38120;53.176;6.614;2022-10-19T15:34:01;12.60;99.90
52127;DHT22;38120;53.176;6.614;2022-10-19T15:36:29;12.50;99.90
52127;DHT22;38120;53.176;6.614;2022-10-19T15:39:05;12.50;99.90
52127;DHT22;38120;53.176;6.614;2022-10-19T15:41:37;12.40;99.90
52127;DHT22;38120;53.176;6.614;2022-10-19T15:44:04;12.40;99.90
52127;DHT22;38120;53.176;6.614;2022-10-19T15:52:18;12.20;99.90
52127;DHT22;38120;53.176;6.614;2022-10-19T15:54:48;12.20;99.90
52127;DHT22;38120;53.176;6.614;2022-10-19T15:57:31;12.20;99.90
52127;DHT22;38120;53.176;6.614;2022-10-19T16:00:00;12.10;99.90
52127;DHT22;38120;53.176;6.614;2022-10-19T16:02:26;12.00;99.90
52127;DHT22;38120;53.176;6.614;2022-10-19T16:04:52;12.00;99.90
52127;DHT22;38120;53.176;6.614;2022-10-19T16:07:30;12.00;99.90
52127;DHT22;38120;53.176;6.614;2022-10-19T16:09:56;11.80;99.90
52127;DHT22;38120;53.176;6.614;2022-10-19T16:12:24;11.90;99.90
52127;DHT22;38120;53.176;6.614;2022-10-19T16:14:51;11.80;99.90
52127;DHT22;38120;53.176;6.614;2022-10-19T16:17:17;11.70;99.90
52127;DHT22;38120;53.176;6.614;2022-10-19T16:19:43;11.60;99.90
52127;DHT22;38120;53.176;6.614;2022-10-19T16:22:10;11.60;99.90
52127;DHT22;38120;53.176;6.614;2022-10-19T16:24:36;11.60;99.90
52127;DHT22;38120;53.176;6.614;2022-10-19T16:27:01;11.50;99.90
52127;DHT22;38120;53.176;6.614;2022-10-19T16:29:27;11.50;99.90
52127;DHT22;38120;53.176;6.614;2022-10-19T16:31:53;11.40;99.90
52127;DHT22;38120;53.176;6.614;2022-10-19T16:34:18;11.40;99.90
52127;DHT22;38120;53.176;6.614;2022-10-19T16:36:44;11.30;99.90
52127;DHT22;38120;53.176;6.614;2022-10-19T16:39:10;11.20;99.90
52127;DHT22;38120;53.176;6.614;2022-10-19T16:41:36;11.20;99.90
52127;DHT22;38120;53.176;6.614;2022-10-19T16:44:01;11.20;99.90
52127;DHT22;38120;53.176;6.614;2022-10-19T16:46:27;11.10;99.90
52127;DHT22;38120;53.176;6.614;2022-10-19T16:48:53;11.10;99.90
52127;DHT22;38120;53.176;6.614;2022-10-19T16:53:53;11.00;99.90
52127;DHT22;38120;53.176;6.614;2022-10-19T16:56:22;11.00;99.90
52127;DHT22;38120;53.176;6.614;2022-10-19T16:58:48;10.90;99.90
52127;DHT22;38120;53.176;6.614;2022-10-19T17:01:18;10.80;99.90
52127;DHT22;38120;53.176;6.614;2022-10-19T17:03:45;11.00;99.90
52127;DHT22;38120;53.176;6.614;2022-10-19T17:06:11;10.80;99.90
52127;DHT22;38120;53.176;6.614;2022-10-19T17:08:37;10.70;99.90
52127;DHT22;38120;53.176;6.614;2022-10-19T17:11:10;10.80;99.90
52127;DHT22;38120;53.176;6.614;2022-10-19T17:13:36;10.60;99.90
52127;DHT22;38120;53.176;6.614;2022-10-19T17:16:03;10.60;99.90
52127;DHT22;38120;53.176;6.614;2022-10-19T17:18:29;10.60;99.90
52127;DHT22;38120;53.176;6.614;2022-10-19T17:21:01;10.60;99.90
52127;DHT22;38120;53.176;6.614;2022-10-19T17:23:27;10.60;99.90
52127;DHT22;38120;53.176;6.614;2022-10-19T17:25:53;10.60;99.90
52127;DHT22;38120;53.176;6.614;2022-10-19T17:28:19;10.60;99.90
52127;DHT22;38120;53.176;6.614;2022-10-19T17:30:44;10.60;99.90
52127;DHT22;38120;53.176;6.614;2022-10-19T17:33:12;10.60;99.90
52127;DHT22;38120;53.176;6.614;2022-10-19T17:35:37;10.60;99.90
52127;DHT22;38120;53.176;6.614;2022-10-19T17:38:03;10.60;99.90
52127;DHT22;38120;53.176;6.614;2022-10-19T17:40:28;10.60;99.90
52127;DHT22;38120;53.176;6.614;2022-10-19T17:42:54;10.70;99.90
52127;DHT22;38120;53.176;6.614;2022-10-19T17:45:20;10.60;99.90
52127;DHT22;38120;53.176;6.614;2022-10-19T17:47:46;10.60;99.90
52127;DHT22;38120;53.176;6.614;2022-10-19T17:50:11;10.80;99.90
52127;DHT22;38120;53.176;6.614;2022-10-19T17:52:37;10.50;99.90
52127;DHT22;38120;53.176;6.614;2022-10-19T17:55:03;10.70;99.90